Flight Track Log - Related Links

Times and Time Zones

All times are in EDT time to prevent confusion due to time zone crossing. See the KAP46 flight status page for this flight to view local times or setup timezone preferences in your user account.

Time Position Orientation Groundspeed Altitude Reporting Facility
EDT Latitude Longitude Course Direction KTS MPH feet Rate Location/Type
Sat 07:23:37 AM 44.7125 -74.6836 158° South 151 174 5,300  Level Boston Center
Sat 07:24:37 AM 44.6775 -74.6647 159° South 145 167 5,900 600 Climbing Boston Center
Sat 07:25:37 AM 44.6422 -74.6458 159° South 139 160 6,500 500 Climbing Boston Center
Sat 07:26:37 AM 44.6031 -74.6356 169° South 134 154 6,900 250 Climbing Boston Center
Sat 07:27:37 AM 44.5639 -74.6136 158° South 146 168 7,000 50 Climbing Boston Center
Sat 07:28:00 AM 44.8165 -74.7762 158° South  Level FlightAware Approximate
Sat 07:28:37 AM 44.5183 -74.5944 163° South 156 180 7,000  Level Boston Center
Sat 07:29:37 AM 44.4728 -74.5725 161° South 161 185 7,000  Level Boston Center
Sat 07:30:37 AM 44.4314 -74.5567 165° South 161 185 7,000  Level Boston Center
Sat 07:31:37 AM 44.3900 -74.5406 164° South 167 192 7,000  Level Boston Center
Sat 07:32:37 AM 44.3447 -74.5156 158° South 162 186 7,000 50 Level Boston Center
Sat 07:33:37 AM 44.3033 -74.4997 165° South 162 186 7,100  Climbing Boston Center
Sat 07:34:37 AM 44.2619 -74.4781 159° South 162 186 7,000 -50 Descending Boston Center
Sat 07:35:37 AM 44.2186 -74.4592 163° South 162 186 7,000 50 Level Boston Center
Sat 07:36:37 AM 44.1772 -74.4403 162° South 168 193 7,100  Climbing Boston Center
Sat 07:37:37 AM 44.1358 -74.4186 159° South 168 193 7,000 -50 Descending Boston Center
Sat 07:38:37 AM 44.0925 -74.4000 163° South 163 188 7,000  Level Boston Center
Sat 07:39:37 AM 44.0511 -74.3783 159° South 163 188 7,000  Level Boston Center
Sat 07:40:37 AM 44.0097 -74.3656 167° South 163 188 7,000  Level Boston Center
Sat 07:41:37 AM 43.9683 -74.3439 159° South 163 188 7,000  Level Boston Center
Sat 07:42:37 AM 43.9272 -74.3225 159° South 163 188 7,000 50 Level Boston Center
Sat 07:43:37 AM 43.8836 -74.3039 163° South 163 188 7,100  Climbing Boston Center
Sat 07:44:37 AM 43.8422 -74.2822 159° South 163 188 7,000 -50 Descending Boston Center
Sat 07:45:37 AM 43.7989 -74.2608 160° South 163 188 7,000  Level Boston Center
Sat 07:46:37 AM 43.7553 -74.2422 163° South 163 188 7,000  Level Boston Center
Sat 07:47:37 AM 43.7097 -74.2267 166° South 163 188 7,000  Level Boston Center
Sat 07:48:37 AM 43.6683 -74.2053 160° South 163 188 7,000  Level Boston Center
Sat 07:49:37 AM 43.6250 -74.1897 165° South 163 188 7,000  Level Boston Center
Sat 07:50:37 AM 43.5836 -74.1683 159° South 163 188 7,000  Level Boston Center
Sat 07:51:16 AM 43.5567 -74.1619 170° South 160 184 7,000  Level Boston Center
Sat 07:51:46 AM 43.5339 -74.1528 164° South 160 184 7,000  Level Boston Center
Sat 07:52:37 AM 43.4986 -74.1375 163° South 163 188 7,000  Level Boston Center
Sat 07:53:48 AM 43.4489 -74.1189 165° South 161 185 7,000  Level Boston Center
Sat 07:54:37 AM 43.4136 -74.1008 160° South 163 188 7,000  Level Boston Center
Sat 07:55:37 AM 43.3722 -74.0794 159° South 163 188 7,000  Level Boston Center
Sat 07:56:37 AM 43.3331 -74.0642 164° South 163 188 7,000 -300 Level Boston Center
Sat 07:57:37 AM 43.2853 -74.0403 160° South 169 194 6,400 -550 Descending Boston Center
Sat 07:58:37 AM 43.2397 -74.0192 161° South 169 194 5,900 -500 Descending Boston Center
Sat 07:59:37 AM 43.1900 -73.9922 158° South 174 200 5,400 -450 Descending Boston Center
Sat 08:00:37 AM 43.1486 -73.9739 162° South 179 206 5,000 -500 Descending Boston Center
Sat 08:01:37 AM 43.0969 -73.9528 163° South 184 212 4,400 -550 Descending Boston Center
Sat 08:02:37 AM 43.0533 -73.9347 163° South 178 205 3,900 -450 Descending Boston Center
Sat 08:03:37 AM 43.0036 -73.9136 163° South 178 205 3,500 -300 Descending Boston Center
Sat 08:04:37 AM 42.9622 -73.8900 157° South 183 211 3,300 -350 Descending Boston Center
Sat 08:05:37 AM 42.9125 -73.8575 154° Southeast 178 205 2,800 -475 Descending Boston Center
Sat 08:06:56 AM 42.8547 -73.8250 158° South 180 207 2,200 -600 Descending Boston Center
Sat 08:07:57 AM 42.8111 -73.8128 168° South 138 159 1,400 -744 Descending Boston Center
Sat 08:08:57 AM 42.7778 -73.8092 175° South 113 130 700 -700 Descending Boston Center
Sat 08:10:00 AM 42.7491 -73.8020 170° South  Level Estimated
Sat 08:17:00 AM 42.7491 -73.8020 170° South  Level Estimated
Sat 08:18:00 AM 42.7491 -73.8020 170° South  Level Estimated
Sat 08:19:00 AM 42.7491 -73.8020 170° South  Level Estimated

Login

Don't have an account? Register now (free) for customized features, flight alerts, and more!